createdAt,value
2023-01-13T00:01:10.335Z,99860.00
2023-01-13T00:03:38.840Z,99850.69
2023-01-13T00:06:09.103Z,99855.81
2023-01-13T00:08:36.949Z,99858.56
2023-01-13T00:11:04.845Z,99860.16
2023-01-13T00:13:35.308Z,99849.22
2023-01-13T00:16:05.244Z,99858.81
2023-01-13T00:18:33.687Z,99867.81
2023-01-13T00:21:02.364Z,99870.97
2023-01-13T00:23:34.174Z,99874.72
2023-01-13T00:26:03.630Z,99870.97
2023-01-13T00:28:31.577Z,99877.38
2023-01-13T00:31:06.490Z,99877.25
2023-01-13T00:33:34.524Z,99869.16
2023-01-13T00:36:03.666Z,99871.56
2023-01-13T00:38:34.492Z,99885.50
2023-01-13T00:41:05.127Z,99876.91
2023-01-13T00:43:33.494Z,99875.44
2023-01-13T00:46:02.038Z,99870.66
2023-01-13T00:48:31.547Z,99885.22
2023-01-13T00:51:01.023Z,99885.19
2023-01-13T00:53:30.292Z,99886.66
2023-01-13T00:56:03.861Z,99879.75
2023-01-13T00:58:33.546Z,99868.19
2023-01-13T01:01:02.520Z,99863.34
2023-01-13T01:03:31.903Z,99872.19
2023-01-13T01:06:06.675Z,99869.50
2023-01-13T01:08:35.244Z,99868.63
2023-01-13T01:11:06.003Z,99871.25
2023-01-13T01:13:34.026Z,99870.19
2023-01-13T01:16:07.115Z,99875.84
2023-01-13T01:18:35.155Z,99880.25
2023-01-13T01:21:03.474Z,99883.47
2023-01-13T01:23:32.184Z,99883.47
2023-01-13T01:26:02.276Z,99881.19
2023-01-13T01:28:31.919Z,99893.94
2023-01-13T01:30:59.992Z,99904.38
2023-01-13T01:33:28.706Z,99891.97
2023-01-13T01:35:56.621Z,99897.81
2023-01-13T01:38:24.456Z,99889.69
2023-01-13T01:40:52.364Z,99899.72
2023-01-13T01:43:39.629Z,99890.50
2023-01-13T01:46:08.918Z,99893.91
2023-01-13T01:48:44.196Z,99891.22
2023-01-13T01:51:14.945Z,99896.75
2023-01-13T01:53:43.001Z,99887.66
2023-01-13T01:56:11.909Z,99898.69
2023-01-13T01:58:45.611Z,99909.72
2023-01-13T02:01:15.703Z,99906.84
2023-01-13T02:03:49.774Z,99904.47
2023-01-13T02:06:18.021Z,99905.25
2023-01-13T02:08:47.062Z,99905.38
2023-01-13T02:11:42.723Z,99904.34
2023-01-13T02:14:10.545Z,99913.00
2023-01-13T02:16:44.375Z,99902.47
2023-01-13T02:19:38.055Z,99903.28
2023-01-13T02:22:24.047Z,99896.66
2023-01-13T02:25:16.510Z,99902.66
2023-01-13T02:28:07.901Z,99910.84
2023-01-13T02:31:01.178Z,99921.81
2023-01-13T02:33:46.545Z,99909.53
2023-01-13T02:36:21.005Z,99909.09
2023-01-13T02:38:53.723Z,99908.88
2023-01-13T02:41:46.542Z,99907.19
2023-01-13T02:44:21.668Z,99905.81
2023-01-13T02:46:57.229Z,99903.59
2023-01-13T02:49:34.599Z,99900.81
2023-01-13T02:52:09.506Z,99905.41
2023-01-13T02:54:40.424Z,99905.34
2023-01-13T02:57:12.895Z,99911.31
2023-01-13T02:59:42.241Z,99910.88
2023-01-13T03:02:19.896Z,99919.13
2023-01-13T03:04:54.271Z,99907.78
2023-01-13T03:07:49.222Z,99905.47
2023-01-13T03:10:29.031Z,99903.59
2023-01-13T03:13:09.321Z,99910.09
2023-01-13T03:15:45.618Z,99916.44
2023-01-13T03:18:27.614Z,99923.34
2023-01-13T03:21:05.959Z,99930.38
2023-01-13T03:23:41.669Z,99929.28
2023-01-13T03:26:16.991Z,99925.06
2023-01-13T03:28:50.349Z,99938.88
2023-01-13T03:31:25.860Z,99938.88
2023-01-13T03:34:00.573Z,99939.94
2023-01-13T03:36:31.705Z,99944.97
2023-01-13T03:39:04.926Z,99949.78
2023-01-13T03:41:37.894Z,99953.09
2023-01-13T03:44:24.986Z,99942.66
2023-01-13T03:47:02.440Z,99950.78
2023-01-13T03:49:38.732Z,99950.31
2023-01-13T03:52:11.254Z,99954.25
2023-01-13T03:54:46.321Z,99949.16
2023-01-13T03:57:17.181Z,99954.91
2023-01-13T03:59:48.394Z,99941.19
2023-01-13T04:02:21.305Z,99941.47
2023-01-13T04:04:56.056Z,99944.47
2023-01-13T04:07:32.519Z,99930.63
2023-01-13T04:10:03.748Z,99935.31
2023-01-13T04:12:47.500Z,99933.31
2023-01-13T04:15:15.662Z,99933.41
2023-01-13T04:17:43.570Z,99922.56
2023-01-13T04:20:13.835Z,99908.91
2023-01-13T04:22:41.706Z,99913.84
2023-01-13T04:25:11.356Z,99928.00
2023-01-13T04:27:39.518Z,99915.75
2023-01-13T04:30:08.535Z,99919.47
2023-01-13T04:32:36.392Z,99919.16
2023-01-13T04:35:04.746Z,99917.97
2023-01-13T04:37:34.689Z,99916.81
2023-01-13T04:40:02.593Z,99929.59
2023-01-13T04:42:30.678Z,99933.50
2023-01-13T04:44:58.564Z,99933.63
2023-01-13T04:47:26.455Z,99940.63
2023-01-13T04:49:54.297Z,99941.72
2023-01-13T04:52:22.162Z,99935.75
2023-01-13T04:54:51.378Z,99923.75
2023-01-13T04:57:19.427Z,99922.53
2023-01-13T04:59:47.220Z,99930.63
2023-01-13T05:02:19.987Z,99927.34
2023-01-13T05:04:48.337Z,99931.69
2023-01-13T05:07:17.164Z,99934.03
2023-01-13T05:09:45.048Z,99929.47
2023-01-13T05:12:31.971Z,99926.81
2023-01-13T05:15:17.769Z,99922.53
2023-01-13T05:17:45.893Z,99929.13
2023-01-13T05:20:14.437Z,99923.00
2023-01-13T05:23:00.173Z,99922.75
2023-01-13T05:25:28.294Z,99920.09
2023-01-13T05:27:59.110Z,99910.00
2023-01-13T05:30:29.474Z,99909.69
2023-01-13T05:32:57.870Z,99913.28
2023-01-13T05:35:25.936Z,99910.00
2023-01-13T05:37:55.522Z,99919.03
2023-01-13T05:40:52.703Z,99921.69
2023-01-13T05:43:24.588Z,99922.75
2023-01-13T05:45:57.593Z,99926.06
2023-01-13T05:48:27.181Z,99920.31
2023-01-13T05:50:55.400Z,99925.66
2023-01-13T05:53:24.357Z,99923.41
2023-01-13T05:55:52.865Z,99920.56
2023-01-13T05:58:23.876Z,99919.81
2023-01-13T06:00:51.874Z,99912.56
2023-01-13T06:03:21.203Z,99920.97
2023-01-13T06:05:50.403Z,99920.09
2023-01-13T06:08:19.092Z,99918.84
2023-01-13T06:10:47.367Z,99917.56
2023-01-13T06:13:15.224Z,99924.78
2023-01-13T06:15:44.514Z,99911.50
2023-01-13T06:18:12.435Z,99912.53
2023-01-13T06:20:40.287Z,99911.59
2023-01-13T06:23:10.869Z,99914.03
2023-01-13T06:25:45.682Z,99915.53
2023-01-13T06:28:13.568Z,99920.75
2023-01-13T06:30:47.907Z,99917.78
2023-01-13T06:33:19.282Z,99919.59
2023-01-13T06:35:53.069Z,99912.25
2023-01-13T06:38:22.949Z,99906.81
2023-01-13T06:40:51.222Z,99902.66
2023-01-13T06:43:18.400Z,99906.06
2023-01-13T06:45:50.406Z,99906.16
2023-01-13T06:48:19.910Z,99909.38
2023-01-13T06:50:47.724Z,99905.53
2023-01-13T06:53:15.569Z,99913.75
2023-01-13T06:55:43.530Z,99905.44
2023-01-13T06:58:11.374Z,99907.44
2023-01-13T07:00:39.904Z,99908.84
2023-01-13T07:03:11.554Z,99912.78
2023-01-13T07:05:40.025Z,99910.22
2023-01-13T07:08:08.346Z,99920.00
2023-01-13T07:10:37.364Z,99924.69
2023-01-13T07:13:29.199Z,99920.53
2023-01-13T07:15:59.077Z,99920.34
2023-01-13T07:18:31.489Z,99908.50
2023-01-13T07:21:01.507Z,99936.81
2023-01-13T07:23:29.978Z,99930.31
2023-01-13T07:25:58.138Z,99926.63
2023-01-13T07:28:26.237Z,99935.88
2023-01-13T07:30:54.481Z,99930.63
2023-01-13T07:33:22.783Z,99936.28
2023-01-13T07:35:57.928Z,99939.03
2023-01-13T07:38:33.366Z,99935.31
2023-01-13T07:41:22.993Z,99931.81
2023-01-13T07:43:50.662Z,99925.44
2023-01-13T07:46:19.785Z,99921.81
2023-01-13T07:48:48.527Z,99926.19
2023-01-13T07:51:17.708Z,99917.19
2023-01-13T07:53:45.643Z,99922.13
2023-01-13T07:56:13.604Z,99924.22
2023-01-13T07:58:41.551Z,99921.50
2023-01-13T08:01:10.773Z,99921.94
2023-01-13T08:03:39.621Z,99922.34
2023-01-13T08:06:08.685Z,99929.91
2023-01-13T08:08:38.213Z,99931.59
2023-01-13T08:11:08.436Z,99926.38
2023-01-13T08:13:36.388Z,99918.72
2023-01-13T08:16:06.707Z,99907.22
2023-01-13T08:18:35.702Z,99914.16
2023-01-13T08:21:05.884Z,99913.28
2023-01-13T08:23:34.194Z,99919.56
2023-01-13T08:26:05.036Z,99906.28
2023-01-13T08:28:33.013Z,99915.50
2023-01-13T08:31:01.714Z,99912.34
2023-01-13T08:33:30.398Z,99908.81
2023-01-13T08:35:58.723Z,99916.69
2023-01-13T08:38:26.828Z,99918.19
2023-01-13T08:40:54.971Z,99910.94
2023-01-13T08:43:24.197Z,99919.50
2023-01-13T08:45:59.344Z,99925.75
2023-01-13T08:48:29.770Z,99913.75
2023-01-13T08:51:03.483Z,99925.47
2023-01-13T08:53:31.330Z,99935.44
2023-01-13T08:55:59.198Z,99905.34
2023-01-13T08:58:28.588Z,99918.31
2023-01-13T09:00:56.519Z,99930.28
2023-01-13T09:03:24.393Z,99928.59
2023-01-13T09:05:52.360Z,99915.66
2023-01-13T09:08:20.379Z,99926.88
2023-01-13T09:10:48.485Z,99907.41
2023-01-13T09:13:16.109Z,99915.59
2023-01-13T09:15:47.324Z,99903.69
2023-01-13T09:18:16.046Z,99919.78
2023-01-13T09:20:44.741Z,99926.28
2023-01-13T09:23:12.574Z,99918.28
2023-01-13T09:25:40.766Z,99914.53
2023-01-13T09:28:09.199Z,99920.19
2023-01-13T09:30:38.703Z,99917.34
2023-01-13T09:33:25.498Z,99924.59
2023-01-13T09:35:53.417Z,99930.41
2023-01-13T09:38:21.416Z,99924.47
2023-01-13T09:40:50.924Z,99935.44
2023-01-13T09:43:41.936Z,99930.66
2023-01-13T09:46:33.438Z,99936.38
2023-01-13T09:49:03.823Z,99937.66
2023-01-13T09:51:38.771Z,99938.72
2023-01-13T09:54:16.187Z,99929.06
2023-01-13T09:56:44.557Z,99935.88
2023-01-13T09:59:13.254Z,99919.81
2023-01-13T10:01:49.217Z,99916.72
2023-01-13T10:04:18.584Z,99919.03
2023-01-13T10:06:52.349Z,99919.16
2023-01-13T10:09:26.923Z,99919.75
2023-01-13T10:12:16.646Z,99923.22
2023-01-13T10:14:51.161Z,99912.75
2023-01-13T10:17:25.122Z,99918.91
2023-01-13T10:20:00.746Z,99934.63
2023-01-13T10:22:48.652Z,99913.75
2023-01-13T10:25:32.303Z,99924.53
2023-01-13T10:28:09.266Z,99913.44
2023-01-13T10:30:40.158Z,99916.47
2023-01-13T10:33:13.361Z,99917.66
2023-01-13T10:35:57.965Z,99918.97
2023-01-13T10:38:27.828Z,99915.97
2023-01-13T10:40:57.279Z,99912.22
2023-01-13T10:43:27.708Z,99913.13
2023-01-13T10:46:00.656Z,99909.97
2023-01-13T10:48:41.222Z,99900.50
2023-01-13T10:51:29.146Z,99896.53
2023-01-13T10:54:01.187Z,99897.25
2023-01-13T10:56:32.307Z,99900.94
2023-01-13T10:59:23.433Z,99911.19
2023-01-13T11:02:01.161Z,99926.25
2023-01-13T11:04:36.623Z,99931.28
2023-01-13T11:07:19.196Z,99939.47
2023-01-13T11:09:47.214Z,99942.28
2023-01-13T11:12:32.098Z,99948.41
2023-01-13T11:15:03.659Z,99944.69
2023-01-13T11:17:40.435Z,99945.44
2023-01-13T11:20:20.456Z,99947.44
2023-01-13T11:22:53.001Z,99937.63
2023-01-13T11:25:25.378Z,99942.34
2023-01-13T11:27:58.935Z,99942.97
2023-01-13T11:30:34.840Z,99940.88
2023-01-13T11:33:18.207Z,99951.69
2023-01-13T11:35:51.115Z,99937.53
2023-01-13T11:38:32.955Z,99950.31
2023-01-13T11:41:07.849Z,99946.19
2023-01-13T11:43:44.552Z,99949.88
2023-01-13T11:46:12.532Z,99936.47
2023-01-13T11:48:43.444Z,99937.19
2023-01-13T11:51:24.164Z,99941.91
2023-01-13T11:54:11.527Z,99940.63
2023-01-13T11:57:00.077Z,99941.16
2023-01-13T11:59:56.161Z,99923.34
2023-01-13T12:02:40.371Z,99940.38
2023-01-13T12:05:16.187Z,99932.28
2023-01-13T12:07:54.553Z,99942.34
2023-01-13T12:10:39.878Z,99928.28
2023-01-13T12:13:19.631Z,99940.41
2023-01-13T12:16:15.119Z,99927.31
2023-01-13T12:19:09.230Z,99932.53
2023-01-13T12:21:39.993Z,99925.41
2023-01-13T12:24:19.237Z,99920.41
2023-01-13T12:26:55.690Z,99915.28
2023-01-13T12:29:31.994Z,99932.00
2023-01-13T12:32:03.151Z,99929.69
2023-01-13T12:34:50.862Z,99936.91
2023-01-13T12:37:27.223Z,99924.88
2023-01-13T12:40:07.113Z,99930.28
2023-01-13T12:43:03.277Z,99929.75
2023-01-13T12:45:33.201Z,99935.75
2023-01-13T12:48:01.847Z,99932.66
2023-01-13T12:50:43.438Z,99927.13
2023-01-13T12:53:34.773Z,99928.63
2023-01-13T12:56:44.724Z,99952.88
2023-01-13T12:59:39.441Z,99950.22
2023-01-13T13:02:31.497Z,99946.91
2023-01-13T13:05:21.899Z,99952.97
2023-01-13T13:07:53.687Z,99948.94
2023-01-13T13:10:30.550Z,99955.03
2023-01-13T13:13:18.179Z,99959.59
2023-01-13T13:15:47.050Z,99957.03
2023-01-13T13:18:31.017Z,99960.84
2023-01-13T13:21:04.173Z,99949.56
2023-01-13T13:23:48.395Z,99948.31
2023-01-13T13:26:26.372Z,99950.44
2023-01-13T13:29:09.942Z,99953.22
2023-01-13T13:31:56.536Z,99954.16
2023-01-13T13:34:35.152Z,99960.44
2023-01-13T13:37:33.164Z,99958.66
2023-01-13T13:40:24.369Z,99960.22
2023-01-13T13:43:15.390Z,99973.84
2023-01-13T13:46:09.522Z,99962.75
2023-01-13T13:48:37.412Z,99968.66
2023-01-13T13:51:25.671Z,99977.03
2023-01-13T13:53:54.724Z,99976.47
2023-01-13T13:56:26.818Z,99968.94
2023-01-13T13:58:55.558Z,99975.63
2023-01-13T14:01:26.411Z,99980.84
2023-01-13T14:04:13.442Z,99994.91
2023-01-13T14:06:52.880Z,99993.06
2023-01-13T14:09:22.439Z,99992.16
2023-01-13T14:12:16.416Z,99980.88
2023-01-13T14:14:44.805Z,100003.31
2023-01-13T14:17:20.598Z,99989.38
2023-01-13T14:19:54.145Z,99992.44
2023-01-13T14:22:23.645Z,99994.47
2023-01-13T14:24:55.694Z,99992.78
2023-01-13T14:27:27.424Z,99987.97
2023-01-13T14:29:58.135Z,99983.53
2023-01-13T14:32:33.855Z,99991.28
2023-01-13T14:35:01.945Z,99988.84
2023-01-13T14:37:36.267Z,99989.91
2023-01-13T14:40:05.319Z,99979.59
2023-01-13T14:42:35.487Z,99980.00
2023-01-13T14:45:03.895Z,99989.88
2023-01-13T14:47:34.152Z,99982.03
2023-01-13T14:50:04.952Z,99988.00
2023-01-13T14:52:37.332Z,99987.91
2023-01-13T14:55:25.777Z,99993.00
2023-01-13T14:57:53.680Z,99987.69
2023-01-13T15:00:27.675Z,99994.28
2023-01-13T15:03:07.277Z,99997.34
2023-01-13T15:05:47.403Z,100004.94
2023-01-13T15:08:28.526Z,100027.78
2023-01-13T15:11:00.880Z,100023.84
2023-01-13T15:13:35.722Z,100028.88
2023-01-13T15:16:05.777Z,100044.31
2023-01-13T15:18:35.791Z,100052.59
2023-01-13T15:21:04.253Z,100059.78
2023-01-13T15:23:33.502Z,100070.88
2023-01-13T15:26:03.092Z,100066.22
2023-01-13T15:28:33.034Z,100071.13
2023-01-13T15:31:03.791Z,100066.94
2023-01-13T15:33:34.357Z,100065.41
2023-01-13T15:36:02.857Z,100082.00
2023-01-13T15:38:30.764Z,100068.94
2023-01-13T15:41:00.506Z,100089.53
2023-01-13T15:43:45.913Z,100082.53
2023-01-13T15:46:33.414Z,100100.09
2023-01-13T15:49:12.742Z,100112.06
2023-01-13T15:51:41.206Z,100103.34
2023-01-13T15:54:09.527Z,100105.78
2023-01-13T15:56:41.476Z,100103.50
2023-01-13T15:59:17.479Z,100100.66
2023-01-13T16:01:46.602Z,100099.88
2023-01-13T16:04:14.620Z,100099.94
2023-01-13T16:06:42.586Z,100094.31
2023-01-13T16:09:13.654Z,100099.47
2023-01-13T16:11:42.852Z,100095.03
2023-01-13T16:14:10.709Z,100112.59
2023-01-13T16:16:38.685Z,100107.16
2023-01-13T16:19:06.579Z,100119.41
2023-01-13T16:21:34.463Z,100101.94
2023-01-13T16:24:02.452Z,100119.16
2023-01-13T16:26:30.690Z,100118.84
2023-01-13T16:29:00.112Z,100123.50
2023-01-13T16:31:31.856Z,100134.03
2023-01-13T16:34:01.110Z,100132.13
2023-01-13T16:36:30.296Z,100155.09
2023-01-13T16:38:58.660Z,100161.56
2023-01-13T16:41:26.657Z,100163.06
2023-01-13T16:43:54.991Z,100176.94
2023-01-13T16:46:26.580Z,100174.84
2023-01-13T16:48:55.782Z,100178.06
2023-01-13T16:51:25.255Z,100190.59
2023-01-13T16:53:53.803Z,100185.84
2023-01-13T16:56:26.016Z,100185.31
2023-01-13T16:58:56.009Z,100165.56
2023-01-13T17:01:27.097Z,100178.34
2023-01-13T17:03:55.798Z,100180.75
2023-01-13T17:06:27.680Z,100180.91
2023-01-13T17:08:57.732Z,100182.75
2023-01-13T17:11:25.631Z,100179.31
2023-01-13T17:13:53.465Z,100178.25
2023-01-13T17:16:24.377Z,100187.44
2023-01-13T17:18:54.364Z,100186.03
2023-01-13T17:21:22.413Z,100180.81
2023-01-13T17:23:50.390Z,100190.78
2023-01-13T17:26:32.334Z,100181.84
2023-01-13T17:29:01.887Z,100192.13
2023-01-13T17:31:30.091Z,100189.28
2023-01-13T17:33:59.713Z,100192.50
2023-01-13T17:36:27.700Z,100193.84
2023-01-13T17:38:56.581Z,100194.78
2023-01-13T17:41:26.073Z,100201.78
2023-01-13T17:43:54.510Z,100203.22
2023-01-13T17:46:23.207Z,100194.00
2023-01-13T17:48:52.734Z,100195.91
2023-01-13T17:51:25.215Z,100197.16
2023-01-13T17:53:54.824Z,100215.38
2023-01-13T17:56:24.707Z,100203.78
2023-01-13T17:58:52.579Z,100214.78
2023-01-13T18:01:22.285Z,100219.44
2023-01-13T18:03:50.761Z,100240.16
2023-01-13T18:06:21.058Z,100240.81
2023-01-13T18:08:51.053Z,100244.72
2023-01-13T18:11:22.225Z,100246.59
2023-01-13T18:13:54.780Z,100248.41
2023-01-13T18:16:23.127Z,100263.69
2023-01-13T18:18:53.272Z,100268.06
2023-01-13T18:21:42.171Z,100285.31
2023-01-13T18:24:31.660Z,100278.09
2023-01-13T18:27:17.736Z,100293.25
2023-01-13T18:29:45.799Z,100284.34
2023-01-13T18:32:14.399Z,100283.97
2023-01-13T18:34:42.603Z,100279.13
2023-01-13T18:37:14.659Z,100290.88
2023-01-13T18:39:44.161Z,100301.44
2023-01-13T18:42:30.685Z,100294.22
2023-01-13T18:44:59.403Z,100303.13
2023-01-13T18:47:29.786Z,100320.03
2023-01-13T18:49:58.022Z,100310.84
2023-01-13T18:52:29.968Z,100321.00
2023-01-13T18:54:59.424Z,100319.16
2023-01-13T18:57:27.629Z,100320.50
2023-01-13T18:59:57.337Z,100333.38
2023-01-13T19:02:28.275Z,100334.06
2023-01-13T19:04:57.364Z,100335.19
2023-01-13T19:07:28.665Z,100334.75
2023-01-13T19:10:00.626Z,100346.50
2023-01-13T19:12:31.135Z,100344.91
2023-01-13T19:14:59.877Z,100351.22
2023-01-13T19:17:33.253Z,100366.53
2023-01-13T19:20:01.759Z,100361.34
2023-01-13T19:22:32.661Z,100366.25
2023-01-13T19:25:01.311Z,100357.56
2023-01-13T19:27:31.436Z,100364.09
2023-01-13T19:30:00.733Z,100362.13
2023-01-13T19:32:30.929Z,100371.06
2023-01-13T19:35:01.010Z,100381.69
2023-01-13T19:37:30.380Z,100388.09
2023-01-13T19:39:59.453Z,100386.38
2023-01-13T19:42:45.238Z,100384.91
2023-01-13T19:45:28.310Z,100385.00
2023-01-13T19:47:57.330Z,100404.38
2023-01-13T19:50:25.400Z,100396.78
2023-01-13T19:52:53.813Z,100400.66
2023-01-13T19:55:21.685Z,100412.25
2023-01-13T19:57:49.641Z,100412.47
2023-01-13T20:00:21.115Z,100407.31
2023-01-13T20:02:52.032Z,100416.69
2023-01-13T20:05:22.776Z,100421.56
2023-01-13T20:07:51.451Z,100433.94
2023-01-13T20:10:20.760Z,100425.09
2023-01-13T20:12:49.073Z,100434.78
2023-01-13T20:15:18.744Z,100431.38
2023-01-13T20:17:46.637Z,100440.94
2023-01-13T20:20:15.838Z,100454.31
2023-01-13T20:22:43.885Z,100447.25
2023-01-13T20:25:13.296Z,100452.56
2023-01-13T20:27:41.543Z,100457.69
2023-01-13T20:30:13.387Z,100464.00
2023-01-13T20:32:42.824Z,100477.94
2023-01-13T20:35:11.982Z,100483.59
2023-01-13T20:37:40.541Z,100482.72
2023-01-13T20:40:11.792Z,100488.13
2023-01-13T20:42:44.849Z,100482.47
2023-01-13T20:45:17.327Z,100484.44
2023-01-13T20:47:47.938Z,100489.00
2023-01-13T20:50:17.518Z,100494.84
2023-01-13T20:52:45.790Z,100496.09
2023-01-13T20:55:16.679Z,100506.38
2023-01-13T20:57:48.575Z,100503.56
2023-01-13T21:00:19.849Z,100502.44
2023-01-13T21:02:49.798Z,100500.91
2023-01-13T21:05:17.768Z,100511.78
2023-01-13T21:07:45.641Z,100511.28
2023-01-13T21:10:15.675Z,100522.19
2023-01-13T21:13:04.390Z,100516.09
2023-01-13T21:15:35.034Z,100514.25
2023-01-13T21:18:22.011Z,100522.06
2023-01-13T21:20:50.969Z,100519.84
2023-01-13T21:23:18.930Z,100515.47
2023-01-13T21:25:46.863Z,100520.63
2023-01-13T21:28:16.706Z,100520.78
2023-01-13T21:30:47.903Z,100530.16
2023-01-13T21:33:17.188Z,100531.25
2023-01-13T21:35:45.056Z,100538.34
2023-01-13T21:38:13.724Z,100539.38
2023-01-13T21:40:41.711Z,100541.94
2023-01-13T21:43:30.833Z,100545.19
2023-01-13T21:46:16.034Z,100544.25
2023-01-13T21:48:45.680Z,100558.84
2023-01-13T21:51:14.165Z,100560.03
2023-01-13T21:53:42.031Z,100561.84
2023-01-13T21:56:13.022Z,100573.50
2023-01-13T21:58:40.989Z,100592.34
2023-01-13T22:01:12.001Z,100599.38
2023-01-13T22:03:54.737Z,100590.03
2023-01-13T22:06:24.605Z,100605.66
2023-01-13T22:08:53.926Z,100599.91
2023-01-13T22:11:21.800Z,100622.38
2023-01-13T22:14:09.152Z,100622.19
2023-01-13T22:16:39.835Z,100629.47
2023-01-13T22:19:08.929Z,100637.09
2023-01-13T22:21:40.928Z,100634.88
2023-01-13T22:24:09.266Z,100641.06
2023-01-13T22:26:38.399Z,100636.28
2023-01-13T22:29:06.324Z,100645.34
2023-01-13T22:31:34.445Z,100656.47
2023-01-13T22:34:02.334Z,100657.78
2023-01-13T22:36:30.571Z,100657.44
2023-01-13T22:39:01.108Z,100665.25
2023-01-13T22:41:29.025Z,100681.38
2023-01-13T22:43:56.956Z,100672.94
2023-01-13T22:46:24.960Z,100675.38
2023-01-13T22:48:54.777Z,100684.94
2023-01-13T22:51:23.804Z,100681.19
2023-01-13T22:53:52.384Z,100690.34
2023-01-13T22:56:23.584Z,100691.31
2023-01-13T22:58:54.516Z,100701.41
2023-01-13T23:01:23.024Z,100714.78
2023-01-13T23:03:51.291Z,100711.25
2023-01-13T23:06:21.058Z,100708.69
2023-01-13T23:08:49.432Z,100715.00
2023-01-13T23:11:23.604Z,100703.69
2023-01-13T23:13:57.552Z,100722.06
2023-01-13T23:16:26.132Z,100720.59
2023-01-13T23:18:54.204Z,100715.16
2023-01-13T23:21:24.601Z,100731.31
2023-01-13T23:23:52.695Z,100738.53
2023-01-13T23:26:21.314Z,100743.88
2023-01-13T23:28:49.692Z,100746.50
2023-01-13T23:31:21.510Z,100752.44
2023-01-13T23:33:49.980Z,100753.22
2023-01-13T23:36:20.220Z,100768.81
2023-01-13T23:38:49.305Z,100776.25
2023-01-13T23:41:19.395Z,100772.03
2023-01-13T23:43:51.178Z,100775.28
2023-01-13T23:46:22.042Z,100781.38
2023-01-13T23:48:50.877Z,100780.38
2023-01-13T23:51:21.269Z,100782.66
2023-01-13T23:53:51.156Z,100770.06
2023-01-13T23:56:21.309Z,100779.13
2023-01-13T23:58:50.062Z,100776.97
